sensor_id;sensor_type;location;lat;lon;timestamp;P1;durP1;ratioP1;P2;durP2;ratioP2
26824;SDS011;14402;48.178;11.566;2023-07-30T00:00:28;1.3;;;0.9;;
26824;SDS011;14402;48.178;11.566;2023-07-30T00:00:58;1.2;;;0.9;;
26824;SDS011;14402;48.178;11.566;2023-07-30T00:01:28;1.1;;;1.0;;
26824;SDS011;14402;48.178;11.566;2023-07-30T00:01:58;1.1;;;1.0;;
26824;SDS011;14402;48.178;11.566;2023-07-30T00:02:28;1.1;;;1.0;;
26824;SDS011;14402;48.178;11.566;2023-07-30T00:02:58;1.2;;;1.0;;
26824;SDS011;14402;48.178;11.566;2023-07-30T00:03:28;1.2;;;1.0;;
26824;SDS011;14402;48.178;11.566;2023-07-30T00:03:58;1.2;;;1.0;;
26824;SDS011;14402;48.178;11.566;2023-07-30T00:04:28;1.2;;;1.0;;
26824;SDS011;14402;48.178;11.566;2023-07-30T00:04:59;1.1;;;0.9;;
26824;SDS011;14402;48.178;11.566;2023-07-30T00:05:29;1.0;;;0.7;;
26824;SDS011;14402;48.178;11.566;2023-07-30T00:05:59;1.0;;;0.7;;
26824;SDS011;14402;48.178;11.566;2023-07-30T00:06:29;1.0;;;0.7;;
26824;SDS011;14402;48.178;11.566;2023-07-30T00:06:59;1.1;;;0.9;;
26824;SDS011;14402;48.178;11.566;2023-07-30T00:07:29;1.2;;;1.0;;
26824;SDS011;14402;48.178;11.566;2023-07-30T00:07:59;1.2;;;1.0;;
26824;SDS011;14402;48.178;11.566;2023-07-30T00:08:29;1.2;;;1.0;;
26824;SDS011;14402;48.178;11.566;2023-07-30T00:08:59;1.1;;;0.9;;
26824;SDS011;14402;48.178;11.566;2023-07-30T00:09:29;1.0;;;0.8;;
26824;SDS011;14402;48.178;11.566;2023-07-30T00:09:59;1.0;;;0.8;;
26824;SDS011;14402;48.178;11.566;2023-07-30T00:10:29;1.0;;;0.8;;
26824;SDS011;14402;48.178;11.566;2023-07-30T00:10:59;1.4;;;0.9;;
26824;SDS011;14402;48.178;11.566;2023-07-30T00:11:30;1.7;;;1.0;;
26824;SDS011;14402;48.178;11.566;2023-07-30T00:12:00;1.7;;;1.0;;
26824;SDS011;14402;48.178;11.566;2023-07-30T00:12:30;1.7;;;1.0;;
26824;SDS011;14402;48.178;11.566;2023-07-30T00:13:00;1.5;;;1.0;;
26824;SDS011;14402;48.178;11.566;2023-07-30T00:13:30;1.2;;;1.0;;
26824;SDS011;14402;48.178;11.566;2023-07-30T00:14:00;1.2;;;1.0;;
26824;SDS011;14402;48.178;11.566;2023-07-30T00:14:30;1.2;;;1.0;;
26824;SDS011;14402;48.178;11.566;2023-07-30T00:15:00;1.4;;;1.0;;
26824;SDS011;14402;48.178;11.566;2023-07-30T00:15:30;1.5;;;1.0;;
26824;SDS011;14402;48.178;11.566;2023-07-30T00:16:00;1.5;;;1.0;;
26824;SDS011;14402;48.178;11.566;2023-07-30T00:16:30;1.5;;;1.0;;
26824;SDS011;14402;48.178;11.566;2023-07-30T00:17:00;1.2;;;0.9;;
26824;SDS011;14402;48.178;11.566;2023-07-30T00:17:32;1.0;;;0.9;;
26824;SDS011;14402;48.178;11.566;2023-07-30T00:18:01;1.0;;;0.9;;
26824;SDS011;14402;48.178;11.566;2023-07-30T00:18:31;1.0;;;0.9;;
26824;SDS011;14402;48.178;11.566;2023-07-30T00:19:01;1.5;;;1.0;;
26824;SDS011;14402;48.178;11.566;2023-07-30T00:19:31;2.0;;;1.1;;
26824;SDS011;14402;48.178;11.566;2023-07-30T00:20:01;2.0;;;1.1;;
26824;SDS011;14402;48.178;11.566;2023-07-30T00:20:31;2.0;;;1.1;;
26824;SDS011;14402;48.178;11.566;2023-07-30T00:21:01;2.0;;;1.1;;
26824;SDS011;14402;48.178;11.566;2023-07-30T00:21:31;2.1;;;1.1;;
26824;SDS011;14402;48.178;11.566;2023-07-30T00:22:01;2.1;;;1.1;;
26824;SDS011;14402;48.178;11.566;2023-07-30T00:22:31;2.1;;;1.1;;
26824;SDS011;14402;48.178;11.566;2023-07-30T00:23:01;1.8;;;1.0;;
26824;SDS011;14402;48.178;11.566;2023-07-30T00:23:31;1.4;;;0.9;;
26824;SDS011;14402;48.178;11.566;2023-07-30T00:24:02;1.4;;;0.9;;
26824;SDS011;14402;48.178;11.566;2023-07-30T00:24:32;1.4;;;0.9;;
26824;SDS011;14402;48.178;11.566;2023-07-30T00:25:02;1.2;;;0.9;;
26824;SDS011;14402;48.178;11.566;2023-07-30T00:25:32;1.1;;;0.9;;
26824;SDS011;14402;48.178;11.566;2023-07-30T00:26:02;1.1;;;0.9;;
26824;SDS011;14402;48.178;11.566;2023-07-30T00:26:32;1.1;;;0.9;;
26824;SDS011;14402;48.178;11.566;2023-07-30T00:27:02;1.3;;;0.9;;
26824;SDS011;14402;48.178;11.566;2023-07-30T00:27:32;1.5;;;0.8;;
26824;SDS011;14402;48.178;11.566;2023-07-30T00:28:02;1.5;;;0.8;;
26824;SDS011;14402;48.178;11.566;2023-07-30T00:28:32;1.5;;;0.8;;
26824;SDS011;14402;48.178;11.566;2023-07-30T00:29:02;1.4;;;0.9;;
26824;SDS011;14402;48.178;11.566;2023-07-30T00:29:32;1.3;;;0.9;;
26824;SDS011;14402;48.178;11.566;2023-07-30T00:30:03;1.3;;;0.9;;
26824;SDS011;14402;48.178;11.566;2023-07-30T00:30:32;1.3;;;0.9;;
26824;SDS011;14402;48.178;11.566;2023-07-30T00:31:03;1.6;;;0.9;;
26824;SDS011;14402;48.178;11.566;2023-07-30T00:31:33;1.9;;;0.9;;
26824;SDS011;14402;48.178;11.566;2023-07-30T00:32:03;1.9;;;0.9;;
26824;SDS011;14402;48.178;11.566;2023-07-30T00:32:33;1.9;;;0.9;;
26824;SDS011;14402;48.178;11.566;2023-07-30T00:33:03;2.0;;;0.9;;
26824;SDS011;14402;48.178;11.566;2023-07-30T00:33:33;2.1;;;1.0;;
26824;SDS011;14402;48.178;11.566;2023-07-30T00:34:03;2.1;;;1.0;;
26824;SDS011;14402;48.178;11.566;2023-07-30T00:34:33;2.1;;;1.0;;
26824;SDS011;14402;48.178;11.566;2023-07-30T00:35:03;1.6;;;1.0;;
26824;SDS011;14402;48.178;11.566;2023-07-30T00:35:33;1.2;;;1.0;;
26824;SDS011;14402;48.178;11.566;2023-07-30T00:36:03;1.2;;;1.0;;
26824;SDS011;14402;48.178;11.566;2023-07-30T00:36:33;1.2;;;1.0;;
26824;SDS011;14402;48.178;11.566;2023-07-30T00:37:04;1.0;;;0.9;;
26824;SDS011;14402;48.178;11.566;2023-07-30T00:37:34;0.9;;;0.8;;
26824;SDS011;14402;48.178;11.566;2023-07-30T00:38:04;0.9;;;0.8;;
26824;SDS011;14402;48.178;11.566;2023-07-30T00:38:34;0.9;;;0.8;;
26824;SDS011;14402;48.178;11.566;2023-07-30T00:39:04;1.0;;;0.8;;
26824;SDS011;14402;48.178;11.566;2023-07-30T00:39:34;1.1;;;0.8;;
26824;SDS011;14402;48.178;11.566;2023-07-30T00:40:04;1.1;;;0.8;;
26824;SDS011;14402;48.178;11.566;2023-07-30T00:40:39;1.1;;;0.8;;
26824;SDS011;14402;48.178;11.566;2023-07-30T00:41:04;0.9;;;0.8;;
26824;SDS011;14402;48.178;11.566;2023-07-30T00:41:34;0.7;;;0.7;;
26824;SDS011;14402;48.178;11.566;2023-07-30T00:42:04;0.7;;;0.7;;
26824;SDS011;14402;48.178;11.566;2023-07-30T00:42:34;0.7;;;0.7;;
26824;SDS011;14402;48.178;11.566;2023-07-30T00:43:04;0.9;;;0.8;;
26824;SDS011;14402;48.178;11.566;2023-07-30T00:43:34;1.1;;;0.9;;
26824;SDS011;14402;48.178;11.566;2023-07-30T00:44:04;1.1;;;0.9;;
26824;SDS011;14402;48.178;11.566;2023-07-30T00:44:35;1.1;;;0.9;;
26824;SDS011;14402;48.178;11.566;2023-07-30T00:45:05;1.5;;;0.9;;
26824;SDS011;14402;48.178;11.566;2023-07-30T00:45:35;2.0;;;1.0;;
26824;SDS011;14402;48.178;11.566;2023-07-30T00:46:05;2.0;;;1.0;;
26824;SDS011;14402;48.178;11.566;2023-07-30T00:46:35;2.0;;;1.0;;
26824;SDS011;14402;48.178;11.566;2023-07-30T00:47:05;1.5;;;0.9;;
26824;SDS011;14402;48.178;11.566;2023-07-30T00:47:35;1.0;;;0.8;;
26824;SDS011;14402;48.178;11.566;2023-07-30T00:48:05;1.0;;;0.8;;
26824;SDS011;14402;48.178;11.566;2023-07-30T00:48:35;1.0;;;0.8;;
26824;SDS011;14402;48.178;11.566;2023-07-30T00:49:05;2.9;;;1.8;;
26824;SDS011;14402;48.178;11.566;2023-07-30T00:49:35;4.8;;;2.8;;
26824;SDS011;14402;48.178;11.566;2023-07-30T00:50:06;4.8;;;2.8;;
26824;SDS011;14402;48.178;11.566;2023-07-30T00:50:36;4.8;;;2.8;;
26824;SDS011;14402;48.178;11.566;2023-07-30T00:51:06;3.6;;;2.2;;
26824;SDS011;14402;48.178;11.566;2023-07-30T00:51:36;2.4;;;1.5;;
26824;SDS011;14402;48.178;11.566;2023-07-30T00:52:06;2.4;;;1.5;;
26824;SDS011;14402;48.178;11.566;2023-07-30T00:52:36;2.4;;;1.5;;
26824;SDS011;14402;48.178;11.566;2023-07-30T00:53:06;3.0;;;1.9;;
26824;SDS011;14402;48.178;11.566;2023-07-30T00:53:36;3.5;;;2.2;;
26824;SDS011;14402;48.178;11.566;2023-07-30T00:54:06;3.5;;;2.2;;
26824;SDS011;14402;48.178;11.566;2023-07-30T00:54:36;3.5;;;2.2;;
26824;SDS011;14402;48.178;11.566;2023-07-30T00:55:06;2.7;;;1.6;;
26824;SDS011;14402;48.178;11.566;2023-07-30T00:55:36;1.8;;;1.0;;
26824;SDS011;14402;48.178;11.566;2023-07-30T00:56:06;1.8;;;1.0;;
26824;SDS011;14402;48.178;11.566;2023-07-30T00:56:36;1.8;;;1.0;;
26824;SDS011;14402;48.178;11.566;2023-07-30T00:57:06;1.4;;;0.9;;
26824;SDS011;14402;48.178;11.566;2023-07-30T00:57:37;1.0;;;0.8;;
26824;SDS011;14402;48.178;11.566;2023-07-30T00:58:07;1.0;;;0.8;;
26824;SDS011;14402;48.178;11.566;2023-07-30T00:58:37;1.0;;;0.8;;
26824;SDS011;14402;48.178;11.566;2023-07-30T00:59:07;1.3;;;0.8;;
26824;SDS011;14402;48.178;11.566;2023-07-30T00:59:37;1.6;;;0.8;;
26824;SDS011;14402;48.178;11.566;2023-07-30T01:00:07;1.6;;;0.8;;
26824;SDS011;14402;48.178;11.566;2023-07-30T01:00:37;1.6;;;0.8;;
26824;SDS011;14402;48.178;11.566;2023-07-30T01:01:07;1.5;;;0.9;;
26824;SDS011;14402;48.178;11.566;2023-07-30T01:01:37;1.3;;;1.0;;
26824;SDS011;14402;48.178;11.566;2023-07-30T01:02:07;1.3;;;1.0;;
26824;SDS011;14402;48.178;11.566;2023-07-30T01:02:37;1.3;;;1.0;;
26824;SDS011;14402;48.178;11.566;2023-07-30T01:03:07;1.2;;;1.0;;
26824;SDS011;14402;48.178;11.566;2023-07-30T01:03:37;1.1;;;1.0;;
26824;SDS011;14402;48.178;11.566;2023-07-30T01:04:08;1.1;;;1.0;;
26824;SDS011;14402;48.178;11.566;2023-07-30T01:04:38;1.1;;;1.0;;
26824;SDS011;14402;48.178;11.566;2023-07-30T01:05:08;1.5;;;1.1;;
26824;SDS011;14402;48.178;11.566;2023-07-30T01:05:38;2.0;;;1.2;;
26824;SDS011;14402;48.178;11.566;2023-07-30T01:06:08;2.0;;;1.2;;
26824;SDS011;14402;48.178;11.566;2023-07-30T01:06:38;2.0;;;1.2;;
26824;SDS011;14402;48.178;11.566;2023-07-30T01:07:08;1.8;;;1.0;;
26824;SDS011;14402;48.178;11.566;2023-07-30T01:07:38;1.5;;;0.9;;
26824;SDS011;14402;48.178;11.566;2023-07-30T01:08:08;1.5;;;0.9;;
26824;SDS011;14402;48.178;11.566;2023-07-30T01:08:38;1.5;;;0.9;;
26824;SDS011;14402;48.178;11.566;2023-07-30T01:09:08;1.2;;;0.9;;
26824;SDS011;14402;48.178;11.566;2023-07-30T01:09:38;0.9;;;0.8;;
26824;SDS011;14402;48.178;11.566;2023-07-30T01:10:09;0.9;;;0.8;;
26824;SDS011;14402;48.178;11.566;2023-07-30T01:10:39;0.9;;;0.8;;
26824;SDS011;14402;48.178;11.566;2023-07-30T01:11:08;1.1;;;0.8;;
26824;SDS011;14402;48.178;11.566;2023-07-30T01:11:39;1.3;;;0.8;;
26824;SDS011;14402;48.178;11.566;2023-07-30T01:12:09;1.3;;;0.8;;
26824;SDS011;14402;48.178;11.566;2023-07-30T01:12:39;1.3;;;0.8;;
26824;SDS011;14402;48.178;11.566;2023-07-30T01:13:09;1.5;;;0.9;;
26824;SDS011;14402;48.178;11.566;2023-07-30T01:13:39;1.8;;;1.0;;
26824;SDS011;14402;48.178;11.566;2023-07-30T01:14:09;1.8;;;1.0;;
26824;SDS011;14402;48.178;11.566;2023-07-30T01:14:39;1.8;;;1.0;;
26824;SDS011;14402;48.178;11.566;2023-07-30T01:15:09;1.8;;;1.0;;
26824;SDS011;14402;48.178;11.566;2023-07-30T01:15:39;1.8;;;1.0;;
26824;SDS011;14402;48.178;11.566;2023-07-30T01:16:09;1.8;;;1.0;;
26824;SDS011;14402;48.178;11.566;2023-07-30T01:16:39;1.8;;;1.0;;
26824;SDS011;14402;48.178;11.566;2023-07-30T01:17:11;1.6;;;1.0;;
26824;SDS011;14402;48.178;11.566;2023-07-30T01:17:40;1.4;;;1.0;;
26824;SDS011;14402;48.178;11.566;2023-07-30T01:18:10;1.4;;;1.0;;
26824;SDS011;14402;48.178;11.566;2023-07-30T01:18:40;1.4;;;1.0;;
26824;SDS011;14402;48.178;11.566;2023-07-30T01:19:10;1.5;;;0.9;;
26824;SDS011;14402;48.178;11.566;2023-07-30T01:19:40;1.5;;;0.9;;
26824;SDS011;14402;48.178;11.566;2023-07-30T01:20:10;1.5;;;0.9;;
26824;SDS011;14402;48.178;11.566;2023-07-30T01:20:40;1.5;;;0.9;;
26824;SDS011;14402;48.178;11.566;2023-07-30T01:21:10;1.4;;;0.8;;
26824;SDS011;14402;48.178;11.566;2023-07-30T01:21:40;1.2;;;0.7;;
26824;SDS011;14402;48.178;11.566;2023-07-30T01:22:10;1.2;;;0.7;;
26824;SDS011;14402;48.178;11.566;2023-07-30T01:22:40;1.2;;;0.7;;
26824;SDS011;14402;48.178;11.566;2023-07-30T01:23:10;1.4;;;0.8;;
26824;SDS011;14402;48.178;11.566;2023-07-30T01:23:40;1.6;;;0.8;;
26824;SDS011;14402;48.178;11.566;2023-07-30T01:24:11;1.6;;;0.8;;
26824;SDS011;14402;48.178;11.566;2023-07-30T01:24:41;1.6;;;0.8;;
26824;SDS011;14402;48.178;11.566;2023-07-30T01:25:11;1.5;;;0.9;;
26824;SDS011;14402;48.178;11.566;2023-07-30T01:25:41;1.4;;;0.9;;
26824;SDS011;14402;48.178;11.566;2023-07-30T01:26:12;1.4;;;0.9;;
26824;SDS011;14402;48.178;11.566;2023-07-30T01:26:43;1.4;;;0.9;;
26824;SDS011;14402;48.178;11.566;2023-07-30T01:27:11;1.1;;;0.8;;
26824;SDS011;14402;48.178;11.566;2023-07-30T01:27:46;0.8;;;0.7;;
26824;SDS011;14402;48.178;11.566;2023-07-30T01:28:12;0.8;;;0.7;;
26824;SDS011;14402;48.178;11.566;2023-07-30T01:28:42;0.8;;;0.7;;
26824;SDS011;14402;48.178;11.566;2023-07-30T01:29:13;1.2;;;0.9;;
26824;SDS011;14402;48.178;11.566;2023-07-30T01:29:42;1.7;;;1.0;;
26824;SDS011;14402;48.178;11.566;2023-07-30T01:30:15;1.7;;;1.0;;
26824;SDS011;14402;48.178;11.566;2023-07-30T01:30:41;1.7;;;1.0;;
26824;SDS011;14402;48.178;11.566;2023-07-30T01:31:12;1.5;;;1.0;;
26824;SDS011;14402;48.178;11.566;2023-07-30T01:31:42;1.2;;;1.1;;
26824;SDS011;14402;48.178;11.566;2023-07-30T01:32:12;1.2;;;1.1;;
26824;SDS011;14402;48.178;11.566;2023-07-30T01:32:42;1.2;;;1.1;;
26824;SDS011;14402;48.178;11.566;2023-07-30T01:33:12;1.0;;;1.0;;
26824;SDS011;14402;48.178;11.566;2023-07-30T01:33:42;0.8;;;0.8;;
26824;SDS011;14402;48.178;11.566;2023-07-30T01:34:12;0.8;;;0.8;;
26824;SDS011;14402;48.178;11.566;2023-07-30T01:34:42;0.8;;;0.8;;
26824;SDS011;14402;48.178;11.566;2023-07-30T01:35:12;1.1;;;1.0;;
26824;SDS011;14402;48.178;11.566;2023-07-30T01:35:42;1.5;;;1.1;;
26824;SDS011;14402;48.178;11.566;2023-07-30T01:36:12;1.5;;;1.1;;
26824;SDS011;14402;48.178;11.566;2023-07-30T01:36:42;1.5;;;1.1;;
26824;SDS011;14402;48.178;11.566;2023-07-30T01:37:13;1.4;;;1.0;;
26824;SDS011;14402;48.178;11.566;2023-07-30T01:37:43;1.2;;;0.9;;
26824;SDS011;14402;48.178;11.566;2023-07-30T01:38:13;1.2;;;0.9;;
26824;SDS011;14402;48.178;11.566;2023-07-30T01:38:43;1.2;;;0.9;;
26824;SDS011;14402;48.178;11.566;2023-07-30T01:39:13;1.2;;;0.9;;
26824;SDS011;14402;48.178;11.566;2023-07-30T01:39:43;1.3;;;0.8;;
26824;SDS011;14402;48.178;11.566;2023-07-30T01:40:13;1.3;;;0.8;;
26824;SDS011;14402;48.178;11.566;2023-07-30T01:40:43;1.3;;;0.8;;
26824;SDS011;14402;48.178;11.566;2023-07-30T01:41:13;1.2;;;0.9;;
26824;SDS011;14402;48.178;11.566;2023-07-30T01:41:43;1.2;;;0.9;;
26824;SDS011;14402;48.178;11.566;2023-07-30T01:42:13;1.2;;;0.9;;
26824;SDS011;14402;48.178;11.566;2023-07-30T01:42:43;1.2;;;0.9;;
26824;SDS011;14402;48.178;11.566;2023-07-30T01:43:13;1.4;;;0.9;;
26824;SDS011;14402;48.178;11.566;2023-07-30T01:43:43;1.6;;;1.0;;
26824;SDS011;14402;48.178;11.566;2023-07-30T01:44:14;1.6;;;1.0;;
26824;SDS011;14402;48.178;11.566;2023-07-30T01:44:44;1.6;;;1.0;;
26824;SDS011;14402;48.178;11.566;2023-07-30T01:45:14;1.7;;;0.9;;
26824;SDS011;14402;48.178;11.566;2023-07-30T01:45:44;1.8;;;0.7;;
26824;SDS011;14402;48.178;11.566;2023-07-30T01:46:14;1.8;;;0.7;;
26824;SDS011;14402;48.178;11.566;2023-07-30T01:46:44;1.8;;;0.7;;
26824;SDS011;14402;48.178;11.566;2023-07-30T01:47:14;1.8;;;0.8;;
26824;SDS011;14402;48.178;11.566;2023-07-30T01:47:44;1.8;;;0.8;;
26824;SDS011;14402;48.178;11.566;2023-07-30T01:48:14;1.8;;;0.8;;
26824;SDS011;14402;48.178;11.566;2023-07-30T01:48:44;1.8;;;0.8;;
26824;SDS011;14402;48.178;11.566;2023-07-30T01:49:14;1.9;;;1.0;;
26824;SDS011;14402;48.178;11.566;2023-07-30T01:49:44;2.0;;;1.1;;
26824;SDS011;14402;48.178;11.566;2023-07-30T01:50:14;2.0;;;1.1;;
26824;SDS011;14402;48.178;11.566;2023-07-30T01:50:44;2.0;;;1.1;;
26824;SDS011;14402;48.178;11.566;2023-07-30T01:51:15;1.6;;;1.0;;
26824;SDS011;14402;48.178;11.566;2023-07-30T01:51:45;1.2;;;0.8;;
26824;SDS011;14402;48.178;11.566;2023-07-30T01:52:15;1.2;;;0.8;;
26824;SDS011;14402;48.178;11.566;2023-07-30T01:52:45;1.2;;;0.8;;
26824;SDS011;14402;48.178;11.566;2023-07-30T01:53:15;1.4;;;0.9;;
26824;SDS011;14402;48.178;11.566;2023-07-30T01:53:45;1.5;;;0.9;;
26824;SDS011;14402;48.178;11.566;2023-07-30T01:54:15;1.5;;;0.9;;
26824;SDS011;14402;48.178;11.566;2023-07-30T01:54:45;1.5;;;0.9;;
26824;SDS011;14402;48.178;11.566;2023-07-30T01:55:15;1.6;;;0.8;;
26824;SDS011;14402;48.178;11.566;2023-07-30T01:55:45;1.7;;;0.7;;
26824;SDS011;14402;48.178;11.566;2023-07-30T01:56:15;1.7;;;0.7;;
26824;SDS011;14402;48.178;11.566;2023-07-30T01:56:45;1.7;;;0.7;;
26824;SDS011;14402;48.178;11.566;2023-07-30T01:57:15;1.5;;;0.8;;
26824;SDS011;14402;48.178;11.566;2023-07-30T01:57:46;1.3;;;0.8;;
26824;SDS011;14402;48.178;11.566;2023-07-30T01:58:16;1.3;;;0.8;;
26824;SDS011;14402;48.178;11.566;2023-07-30T01:58:46;1.3;;;0.8;;
26824;SDS011;14402;48.178;11.566;2023-07-30T01:59:16;1.6;;;0.9;;
26824;SDS011;14402;48.178;11.566;2023-07-30T01:59:46;2.0;;;0.9;;
26824;SDS011;14402;48.178;11.566;2023-07-30T02:00:16;2.0;;;0.9;;
26824;SDS011;14402;48.178;11.566;2023-07-30T02:00:46;2.0;;;0.9;;
26824;SDS011;14402;48.178;11.566;2023-07-30T02:01:16;2.2;;;0.9;;
26824;SDS011;14402;48.178;11.566;2023-07-30T02:01:46;2.3;;;1.0;;
26824;SDS011;14402;48.178;11.566;2023-07-30T02:02:16;2.3;;;1.0;;
26824;SDS011;14402;48.178;11.566;2023-07-30T02:02:46;2.3;;;1.0;;
26824;SDS011;14402;48.178;11.566;2023-07-30T02:03:16;1.8;;;0.9;;
26824;SDS011;14402;48.178;11.566;2023-07-30T02:03:46;1.4;;;0.9;;
26824;SDS011;14402;48.178;11.566;2023-07-30T02:04:17;1.4;;;0.9;;
26824;SDS011;14402;48.178;11.566;2023-07-30T02:04:47;1.4;;;0.9;;
26824;SDS011;14402;48.178;11.566;2023-07-30T02:05:17;1.0;;;0.8;;
26824;SDS011;14402;48.178;11.566;2023-07-30T02:05:47;0.7;;;0.7;;
26824;SDS011;14402;48.178;11.566;2023-07-30T02:06:17;0.7;;;0.7;;
26824;SDS011;14402;48.178;11.566;2023-07-30T02:06:47;0.7;;;0.7;;
26824;SDS011;14402;48.178;11.566;2023-07-30T02:07:17;0.9;;;0.9;;
26824;SDS011;14402;48.178;11.566;2023-07-30T02:07:47;1.1;;;1.0;;
26824;SDS011;14402;48.178;11.566;2023-07-30T02:08:17;1.1;;;1.0;;
26824;SDS011;14402;48.178;11.566;2023-07-30T02:08:47;1.1;;;1.0;;
26824;SDS011;14402;48.178;11.566;2023-07-30T02:09:17;1.6;;;0.9;;
26824;SDS011;14402;48.178;11.566;2023-07-30T02:09:47;2.1;;;0.9;;
26824;SDS011;14402;48.178;11.566;2023-07-30T02:10:17;2.1;;;0.9;;
26824;SDS011;14402;48.178;11.566;2023-07-30T02:10:54;2.1;;;0.9;;
26824;SDS011;14402;48.178;11.566;2023-07-30T02:11:18;1.6;;;0.9;;
26824;SDS011;14402;48.178;11.566;2023-07-30T02:11:48;1.1;;;0.9;;
26824;SDS011;14402;48.178;11.566;2023-07-30T02:12:18;1.1;;;0.9;;
26824;SDS011;14402;48.178;11.566;2023-07-30T02:12:48;1.1;;;0.9;;
26824;SDS011;14402;48.178;11.566;2023-07-30T02:13:18;1.2;;;1.0;;
26824;SDS011;14402;48.178;11.566;2023-07-30T02:13:48;1.4;;;1.1;;
26824;SDS011;14402;48.178;11.566;2023-07-30T02:14:18;1.4;;;1.1;;
26824;SDS011;14402;48.178;11.566;2023-07-30T02:14:48;1.4;;;1.1;;
26824;SDS011;14402;48.178;11.566;2023-07-30T02:15:18;1.4;;;1.0;;
26824;SDS011;14402;48.178;11.566;2023-07-30T02:15:48;1.4;;;0.8;;
26824;SDS011;14402;48.178;11.566;2023-07-30T02:16:18;1.4;;;0.8;;
26824;SDS011;14402;48.178;11.566;2023-07-30T02:16:48;1.4;;;0.8;;
26824;SDS011;14402;48.178;11.566;2023-07-30T02:17:19;1.4;;;0.9;;
26824;SDS011;14402;48.178;11.566;2023-07-30T02:17:48;1.4;;;0.9;;
26824;SDS011;14402;48.178;11.566;2023-07-30T02:18:19;1.4;;;0.9;;
26824;SDS011;14402;48.178;11.566;2023-07-30T02:18:49;1.4;;;0.9;;
26824;SDS011;14402;48.178;11.566;2023-07-30T02:19:19;1.2;;;0.9;;
26824;SDS011;14402;48.178;11.566;2023-07-30T02:19:49;1.1;;;1.0;;
26824;SDS011;14402;48.178;11.566;2023-07-30T02:20:19;1.1;;;1.0;;
26824;SDS011;14402;48.178;11.566;2023-07-30T02:20:49;1.1;;;1.0;;
26824;SDS011;14402;48.178;11.566;2023-07-30T02:21:19;1.4;;;1.0;;
26824;SDS011;14402;48.178;11.566;2023-07-30T02:21:49;1.7;;;1.0;;
26824;SDS011;14402;48.178;11.566;2023-07-30T02:22:19;1.7;;;1.0;;
26824;SDS011;14402;48.178;11.566;2023-07-30T02:22:49;1.7;;;1.0;;
26824;SDS011;14402;48.178;11.566;2023-07-30T02:23:19;1.7;;;1.0;;
26824;SDS011;14402;48.178;11.566;2023-07-30T02:23:49;1.7;;;1.1;;
26824;SDS011;14402;48.178;11.566;2023-07-30T02:24:20;1.7;;;1.1;;
26824;SDS011;14402;48.178;11.566;2023-07-30T02:24:50;1.7;;;1.1;;
26824;SDS011;14402;48.178;11.566;2023-07-30T02:25:20;2.9;;;1.2;;
26824;SDS011;14402;48.178;11.566;2023-07-30T02:25:50;4.2;;;1.2;;
26824;SDS011;14402;48.178;11.566;2023-07-30T02:26:20;4.2;;;1.2;;
26824;SDS011;14402;48.178;11.566;2023-07-30T02:26:50;4.2;;;1.2;;
26824;SDS011;14402;48.178;11.566;2023-07-30T02:27:20;3.0;;;1.2;;
26824;SDS011;14402;48.178;11.566;2023-07-30T02:27:50;1.8;;;1.2;;
26824;SDS011;14402;48.178;11.566;2023-07-30T02:28:20;1.8;;;1.2;;
26824;SDS011;14402;48.178;11.566;2023-07-30T02:28:50;1.8;;;1.2;;
26824;SDS011;14402;48.178;11.566;2023-07-30T02:29:20;1.5;;;1.0;;
26824;SDS011;14402;48.178;11.566;2023-07-30T02:29:50;1.1;;;0.9;;
26824;SDS011;14402;48.178;11.566;2023-07-30T02:30:20;1.1;;;0.9;;
26824;SDS011;14402;48.178;11.566;2023-07-30T02:30:50;1.1;;;0.9;;
26824;SDS011;14402;48.178;11.566;2023-07-30T02:31:20;1.8;;;1.0;;
26824;SDS011;14402;48.178;11.566;2023-07-30T02:31:51;2.6;;;1.1;;
26824;SDS011;14402;48.178;11.566;2023-07-30T02:32:21;2.6;;;1.1;;
26824;SDS011;14402;48.178;11.566;2023-07-30T02:32:51;2.6;;;1.1;;
26824;SDS011;14402;48.178;11.566;2023-07-30T02:33:21;2.1;;;1.2;;
26824;SDS011;14402;48.178;11.566;2023-07-30T02:33:51;1.6;;;1.2;;
26824;SDS011;14402;48.178;11.566;2023-07-30T02:34:21;1.6;;;1.2;;
26824;SDS011;14402;48.178;11.566;2023-07-30T02:34:51;1.6;;;1.2;;
26824;SDS011;14402;48.178;11.566;2023-07-30T02:35:21;1.8;;;1.2;;
26824;SDS011;14402;48.178;11.566;2023-07-30T02:35:51;2.0;;;1.3;;
26824;SDS011;14402;48.178;11.566;2023-07-30T02:36:21;2.0;;;1.3;;
26824;SDS011;14402;48.178;11.566;2023-07-30T02:36:51;2.0;;;1.3;;
26824;SDS011;14402;48.178;11.566;2023-07-30T02:37:21;1.7;;;1.1;;
26824;SDS011;14402;48.178;11.566;2023-07-30T02:37:51;1.4;;;1.0;;
26824;SDS011;14402;48.178;11.566;2023-07-30T02:38:22;1.4;;;1.0;;
26824;SDS011;14402;48.178;11.566;2023-07-30T02:38:52;1.4;;;1.0;;
26824;SDS011;14402;48.178;11.566;2023-07-30T02:39:22;1.8;;;1.0;;
26824;SDS011;14402;48.178;11.566;2023-07-30T02:39:52;2.3;;;1.1;;
26824;SDS011;14402;48.178;11.566;2023-07-30T02:40:22;2.3;;;1.1;;
26824;SDS011;14402;48.178;11.566;2023-07-30T02:40:52;2.3;;;1.1;;
26824;SDS011;14402;48.178;11.566;2023-07-30T02:41:22;2.4;;;1.2;;
26824;SDS011;14402;48.178;11.566;2023-07-30T02:41:52;2.6;;;1.2;;
26824;SDS011;14402;48.178;11.566;2023-07-30T02:42:22;2.6;;;1.2;;
26824;SDS011;14402;48.178;11.566;2023-07-30T02:42:52;2.6;;;1.2;;
26824;SDS011;14402;48.178;11.566;2023-07-30T02:43:22;2.2;;;1.2;;
26824;SDS011;14402;48.178;11.566;2023-07-30T02:43:52;1.7;;;1.1;;
26824;SDS011;14402;48.178;11.566;2023-07-30T02:44:22;1.7;;;1.1;;
26824;SDS011;14402;48.178;11.566;2023-07-30T02:44:53;1.7;;;1.1;;
26824;SDS011;14402;48.178;11.566;2023-07-30T02:45:22;2.0;;;1.1;;
26824;SDS011;14402;48.178;11.566;2023-07-30T02:45:53;2.3;;;1.1;;
26824;SDS011;14402;48.178;11.566;2023-07-30T02:46:23;2.3;;;1.1;;
26824;SDS011;14402;48.178;11.566;2023-07-30T02:46:53;2.3;;;1.1;;
26824;SDS011;14402;48.178;11.566;2023-07-30T02:47:23;2.2;;;1.2;;
26824;SDS011;14402;48.178;11.566;2023-07-30T02:47:53;2.0;;;1.3;;
26824;SDS011;14402;48.178;11.566;2023-07-30T02:48:23;2.0;;;1.3;;
26824;SDS011;14402;48.178;11.566;2023-07-30T02:48:53;2.0;;;1.3;;
26824;SDS011;14402;48.178;11.566;2023-07-30T02:49:23;1.6;;;1.2;;
26824;SDS011;14402;48.178;11.566;2023-07-30T02:49:53;1.3;;;1.1;;
26824;SDS011;14402;48.178;11.566;2023-07-30T02:50:23;1.3;;;1.1;;
26824;SDS011;14402;48.178;11.566;2023-07-30T02:50:53;1.3;;;1.1;;
26824;SDS011;14402;48.178;11.566;2023-07-30T02:51:23;1.8;;;1.2;;
26824;SDS011;14402;48.178;11.566;2023-07-30T02:51:53;2.2;;;1.2;;
26824;SDS011;14402;48.178;11.566;2023-07-30T02:52:24;2.2;;;1.2;;
26824;SDS011;14402;48.178;11.566;2023-07-30T02:52:54;2.2;;;1.2;;
26824;SDS011;14402;48.178;11.566;2023-07-30T02:53:24;2.2;;;1.2;;
26824;SDS011;14402;48.178;11.566;2023-07-30T02:53:55;2.2;;;1.3;;
26824;SDS011;14402;48.178;11.566;2023-07-30T02:54:24;2.2;;;1.3;;
26824;SDS011;14402;48.178;11.566;2023-07-30T02:54:54;2.2;;;1.3;;
26824;SDS011;14402;48.178;11.566;2023-07-30T02:55:24;1.9;;;1.2;;
26824;SDS011;14402;48.178;11.566;2023-07-30T02:55:54;1.6;;;1.1;;
26824;SDS011;14402;48.178;11.566;2023-07-30T02:56:24;1.6;;;1.1;;
26824;SDS011;14402;48.178;11.566;2023-07-30T02:56:54;1.6;;;1.1;;
26824;SDS011;14402;48.178;11.566;2023-07-30T02:57:24;2.3;;;1.2;;
26824;SDS011;14402;48.178;11.566;2023-07-30T02:57:54;3.0;;;1.4;;
26824;SDS011;14402;48.178;11.566;2023-07-30T02:58:25;3.0;;;1.4;;
26824;SDS011;14402;48.178;11.566;2023-07-30T02:58:55;3.0;;;1.4;;
26824;SDS011;14402;48.178;11.566;2023-07-30T02:59:25;2.4;;;1.2;;
26824;SDS011;14402;48.178;11.566;2023-07-30T02:59:55;1.8;;;1.1;;
26824;SDS011;14402;48.178;11.566;2023-07-30T03:00:25;1.8;;;1.1;;
26824;SDS011;14402;48.178;11.566;2023-07-30T03:00:55;1.8;;;1.1;;
26824;SDS011;14402;48.178;11.566;2023-07-30T03:01:25;1.8;;;1.2;;
26824;SDS011;14402;48.178;11.566;2023-07-30T03:01:55;1.9;;;1.2;;
26824;SDS011;14402;48.178;11.566;2023-07-30T03:02:25;1.9;;;1.2;;
26824;SDS011;14402;48.178;11.566;2023-07-30T03:02:55;1.9;;;1.2;;
26824;SDS011;14402;48.178;11.566;2023-07-30T03:03:25;2.2;;;1.2;;
26824;SDS011;14402;48.178;11.566;2023-07-30T03:03:55;2.5;;;1.3;;